SV74 weather

Aricuaisa Airport
Zulia, Venezuela

Public forecast

Using degrees Celsius for public forecast. Weather courtesy of forecast.io.

Closest aviation weather report (METAR) to Aricuaisa Airport

Closest report is Alfonso L√≥pez Pumarejo Airport, 58.0 nm (107.5 km) NNW. Retrieved 2020/06/05 14:00 UTC (15 minutes ago):

SKVP 051400Z 05012KT 9999 FEW020 30/23 A2994

Closest aviation forecast (TAF) to Aricuaisa Airport

Forecast is more than 12 hours old.

Closest forecast is Villa del Rosario Airport, 52.7 nm (97.6 km) NNE. Retrieved 2019/09/09 18:00 UTC (9 months ago):

TAF SVVS 091700Z 0918/1018 18004KT 9999 BKN016 TX30/0919Z TN22/1008Z TEMPO 0919/0921 9000 DZ TEMPO 0922/1002 24005KT 9999 SCT016 SCT150